createdAt,value
2023-01-23T00:03:01.850Z,101497.78
2023-01-23T00:07:03.636Z,101493.31
2023-01-23T00:11:07.426Z,101486.63
2023-01-23T00:15:11.387Z,101498.16
2023-01-23T00:19:13.201Z,101502.13
2023-01-23T00:23:15.084Z,101497.63
2023-01-23T00:27:16.927Z,101499.03
2023-01-23T00:31:25.268Z,101495.88
2023-01-23T00:35:27.132Z,101509.75
2023-01-23T00:39:28.993Z,101500.81
2023-01-23T00:43:31.128Z,101493.63
2023-01-23T00:47:32.920Z,101502.78
2023-01-23T00:51:34.957Z,101497.63
2023-01-23T00:55:36.798Z,101511.44
2023-01-23T00:59:38.646Z,101511.44
2023-01-23T01:03:40.561Z,101511.63
2023-01-23T01:07:42.325Z,101519.13
2023-01-23T01:11:44.243Z,101534.34
2023-01-23T01:15:46.200Z,101540.78
2023-01-23T01:19:48.321Z,101534.13
2023-01-23T01:23:50.093Z,101532.91
2023-01-23T01:27:51.857Z,101534.88
2023-01-23T01:31:53.670Z,101538.88
2023-01-23T01:35:58.137Z,101548.00
2023-01-23T01:39:59.955Z,101554.16
2023-01-23T01:44:01.881Z,101555.59
2023-01-23T01:48:03.784Z,101564.63
2023-01-23T01:52:07.406Z,101566.94
2023-01-23T01:56:11.188Z,101577.09
2023-01-23T02:00:18.930Z,101585.97
2023-01-23T02:04:20.867Z,101586.81
2023-01-23T02:08:23.675Z,101584.47
2023-01-23T02:12:26.959Z,101602.16
2023-01-23T02:16:32.807Z,101598.75
2023-01-23T02:20:34.611Z,101594.34
2023-01-23T02:24:42.667Z,101597.47
2023-01-23T02:28:47.036Z,101591.56
2023-01-23T02:32:48.984Z,101587.94
2023-01-23T02:36:50.775Z,101606.94
2023-01-23T02:40:52.693Z,101600.69
2023-01-23T02:44:58.074Z,101613.84
2023-01-23T02:49:00.055Z,101612.22
2023-01-23T02:53:01.926Z,101608.41
2023-01-23T02:57:04.387Z,101609.56
2023-01-23T03:01:06.379Z,101614.28
2023-01-23T03:05:08.335Z,101613.44
2023-01-23T03:09:12.627Z,101596.72
2023-01-23T03:13:14.336Z,101593.06
2023-01-23T03:17:16.139Z,101578.91
2023-01-23T03:21:17.919Z,101571.91
2023-01-23T03:25:19.900Z,101566.47
2023-01-23T03:29:42.962Z,101583.38
2023-01-23T03:33:44.932Z,101580.91
2023-01-23T03:37:48.107Z,101576.09
2023-01-23T03:41:50.078Z,101602.22
2023-01-23T03:45:51.960Z,101598.75
2023-01-23T03:49:53.845Z,101619.13
2023-01-23T03:53:55.676Z,101605.72
2023-01-23T03:57:57.502Z,101625.63
2023-01-23T04:02:00.773Z,101625.38
2023-01-23T04:06:02.681Z,101614.78
2023-01-23T04:10:04.915Z,101624.31
2023-01-23T04:14:06.795Z,101629.13
2023-01-23T04:18:08.522Z,101636.50
2023-01-23T04:22:10.471Z,101642.47
2023-01-23T04:26:12.897Z,101633.81
2023-01-23T04:30:14.772Z,101640.53
2023-01-23T04:34:16.595Z,101637.59
2023-01-23T04:38:18.568Z,101649.03
2023-01-23T04:42:20.407Z,101654.94
2023-01-23T04:46:22.630Z,101643.88
2023-01-23T04:50:24.409Z,101660.03
2023-01-23T04:54:26.245Z,101655.47
2023-01-23T04:58:28.115Z,101660.00
2023-01-23T05:02:30.182Z,101659.34
2023-01-23T05:06:32.254Z,101659.19
2023-01-23T05:10:34.200Z,101652.94
2023-01-23T05:14:36.028Z,101658.09
2023-01-23T05:18:37.815Z,101650.63
2023-01-23T05:22:52.420Z,101648.47
2023-01-23T05:26:54.487Z,101660.13
2023-01-23T05:30:57.264Z,101661.81
2023-01-23T05:34:59.303Z,101673.31
2023-01-23T05:39:01.295Z,101671.63
2023-01-23T05:43:04.582Z,101671.06
2023-01-23T05:47:06.445Z,101682.47
2023-01-23T05:51:08.409Z,101671.34
2023-01-23T05:55:10.495Z,101674.78
2023-01-23T05:59:17.912Z,101687.13
2023-01-23T06:03:21.027Z,101684.19
2023-01-23T06:07:25.307Z,101691.25
2023-01-23T06:11:30.322Z,101687.56
2023-01-23T06:15:32.343Z,101687.34
2023-01-23T06:19:34.281Z,101696.88
2023-01-23T06:23:36.269Z,101692.53
2023-01-23T06:27:38.135Z,101701.44
2023-01-23T06:31:39.999Z,101705.28
2023-01-23T06:35:41.790Z,101700.97
2023-01-23T06:39:43.546Z,101716.50
2023-01-23T06:43:45.410Z,101717.31
2023-01-23T06:47:47.197Z,101707.84
2023-01-23T06:51:49.050Z,101716.25
2023-01-23T06:55:54.009Z,101710.31
2023-01-23T06:59:55.734Z,101731.69
2023-01-23T07:03:57.486Z,101737.28
2023-01-23T07:07:59.273Z,101737.28
2023-01-23T07:12:01.224Z,101737.34
2023-01-23T07:16:03.680Z,101758.19
2023-01-23T07:20:06.384Z,101763.41
2023-01-23T07:24:08.177Z,101779.63
2023-01-23T07:28:10.084Z,101786.59
2023-01-23T07:32:11.993Z,101795.16
2023-01-23T07:36:14.784Z,101800.03
2023-01-23T07:40:16.703Z,101798.78
2023-01-23T07:44:20.867Z,101810.06
2023-01-23T07:48:22.726Z,101798.22
2023-01-23T07:52:24.524Z,101807.59
2023-01-23T07:56:26.329Z,101828.78
2023-01-23T08:00:29.888Z,101818.13
2023-01-23T08:04:32.013Z,101807.84
2023-01-23T08:08:33.822Z,101822.22
2023-01-23T08:12:37.007Z,101827.50
2023-01-23T08:16:38.876Z,101823.75
2023-01-23T08:20:40.711Z,101816.13
2023-01-23T08:24:47.449Z,101824.81
2023-01-23T08:28:50.556Z,101824.56
2023-01-23T08:32:52.375Z,101832.94
2023-01-23T08:36:57.467Z,101827.94
2023-01-23T08:41:01.083Z,101828.56
2023-01-23T08:45:03.012Z,101832.16
2023-01-23T08:49:07.270Z,101826.75
2023-01-23T08:53:09.105Z,101832.25
2023-01-23T08:57:11.043Z,101826.44
2023-01-23T09:01:17.454Z,101831.59
2023-01-23T09:05:19.316Z,101851.66
2023-01-23T09:09:21.116Z,101836.25
2023-01-23T09:13:22.942Z,101831.59
2023-01-23T09:17:25.015Z,101842.88
2023-01-23T09:21:31.845Z,101860.41
2023-01-23T09:25:33.662Z,101869.53
2023-01-23T09:29:36.214Z,101863.56
2023-01-23T09:33:38.151Z,101869.88
2023-01-23T09:37:58.884Z,101866.53
2023-01-23T09:42:11.071Z,101876.63
2023-01-23T09:46:20.983Z,101871.06
2023-01-23T09:50:28.594Z,101861.66
2023-01-23T09:54:38.027Z,101870.50
2023-01-23T09:58:49.037Z,101852.56
2023-01-23T10:02:53.400Z,101851.09
2023-01-23T10:07:26.265Z,101847.81
2023-01-23T10:11:58.858Z,101852.50
2023-01-23T10:16:51.382Z,101849.13
2023-01-23T10:21:39.415Z,101832.34
2023-01-23T10:25:41.336Z,101850.03
2023-01-23T10:29:51.900Z,101857.09
2023-01-23T10:34:37.822Z,101844.84
2023-01-23T10:39:02.324Z,101845.53
2023-01-23T10:43:12.377Z,101842.06
2023-01-23T10:47:52.027Z,101846.63
2023-01-23T10:52:02.501Z,101835.56
2023-01-23T10:56:04.674Z,101842.72
2023-01-23T11:00:20.529Z,101836.78
2023-01-23T11:04:34.001Z,101837.03
2023-01-23T11:08:57.451Z,101845.38
2023-01-23T11:13:00.908Z,101836.53
2023-01-23T11:17:21.236Z,101842.81
2023-01-23T11:21:28.097Z,101833.97
2023-01-23T11:25:45.529Z,101830.94
2023-01-23T11:30:01.081Z,101833.00
2023-01-23T11:34:15.588Z,101817.00
2023-01-23T11:38:27.161Z,101843.13
2023-01-23T11:42:44.646Z,101829.97
2023-01-23T11:47:23.549Z,101822.97
2023-01-23T11:51:50.631Z,101824.94
2023-01-23T11:56:01.630Z,101819.94
2023-01-23T12:00:13.504Z,101824.13
2023-01-23T12:04:36.536Z,101818.13
2023-01-23T12:08:43.374Z,101825.25
2023-01-23T12:13:26.549Z,101817.03
2023-01-23T12:17:43.973Z,101814.28
2023-01-23T12:22:07.494Z,101808.84
2023-01-23T12:26:19.683Z,101804.50
2023-01-23T12:30:48.715Z,101824.50
2023-01-23T12:35:27.601Z,101812.06
2023-01-23T12:39:48.047Z,101817.09
2023-01-23T12:44:45.850Z,101794.38
2023-01-23T12:49:06.032Z,101799.72
2023-01-23T12:53:18.229Z,101803.09
2023-01-23T13:02:41.029Z,101817.75
2023-01-23T13:07:16.928Z,101825.25
2023-01-23T13:11:46.448Z,101825.50
2023-01-23T13:16:20.735Z,101828.38
2023-01-23T13:21:21.112Z,101816.66
2023-01-23T13:25:28.585Z,101815.88
2023-01-23T13:29:52.777Z,101826.38
2023-01-23T13:34:06.747Z,101821.22
2023-01-23T13:38:22.030Z,101830.56
2023-01-23T13:42:26.815Z,101825.66
2023-01-23T14:23:03.482Z,101813.97
2023-01-23T14:27:11.566Z,101814.03
2023-01-23T14:31:22.822Z,101824.50
2023-01-23T14:35:26.690Z,101815.56
2023-01-23T14:39:30.270Z,101825.69
2023-01-23T14:43:33.284Z,101818.72
2023-01-23T14:48:11.422Z,101831.97
2023-01-23T14:52:25.920Z,101817.59
2023-01-23T14:56:36.897Z,101813.47
2023-01-23T15:00:38.678Z,101817.91
2023-01-23T15:04:45.653Z,101830.44
2023-01-23T15:08:50.697Z,101819.69
2023-01-23T15:13:18.031Z,101823.03
2023-01-23T15:17:21.170Z,101812.28
2023-01-23T15:21:40.643Z,101821.81
2023-01-23T15:25:42.862Z,101814.44
2023-01-23T15:29:44.909Z,101815.25
2023-01-23T15:33:47.705Z,101813.03
2023-01-23T15:37:52.125Z,101831.03
2023-01-23T15:42:02.534Z,101827.31
2023-01-23T15:46:04.554Z,101826.06
2023-01-23T15:50:06.857Z,101836.34
2023-01-23T15:54:20.231Z,101825.44
2023-01-23T15:58:29.839Z,101834.19
2023-01-23T16:02:34.529Z,101835.41
2023-01-23T16:06:38.069Z,101839.09
2023-01-23T16:10:40.458Z,101846.09
2023-01-23T16:14:44.736Z,101848.72
2023-01-23T16:18:46.481Z,101854.75
2023-01-23T16:22:54.720Z,101860.41
2023-01-23T16:26:56.700Z,101861.19
2023-01-23T16:30:59.208Z,101859.31
2023-01-23T16:35:01.218Z,101862.41
2023-01-23T16:39:04.040Z,101855.56
2023-01-23T16:43:24.177Z,101868.38
2023-01-23T16:47:26.954Z,101863.81
2023-01-23T16:51:33.489Z,101865.94
2023-01-23T17:00:43.704Z,101879.25
2023-01-23T17:04:52.804Z,101856.47
2023-01-23T17:09:15.723Z,101865.22
2023-01-23T17:13:18.467Z,101874.69
2023-01-23T17:18:58.973Z,101889.13
2023-01-23T17:23:55.643Z,101877.91
2023-01-23T17:27:55.236Z,101902.63
2023-01-23T17:33:26.563Z,101904.50
2023-01-23T17:48:21.017Z,101891.31
2023-01-23T17:52:59.003Z,101890.56
2023-01-23T18:02:03.108Z,101910.38
2023-01-23T18:06:16.775Z,101910.28
2023-01-23T18:10:40.289Z,101908.53
2023-01-23T18:20:31.269Z,101913.09
2023-01-23T18:24:45.557Z,101908.03
2023-01-23T18:29:50.938Z,101908.81
2023-01-23T18:34:53.405Z,101913.63
2023-01-23T18:39:42.124Z,101905.06
2023-01-23T18:51:32.904Z,101907.31
2023-01-23T19:02:11.800Z,101893.09
2023-01-23T19:11:37.300Z,101902.25
2023-01-23T19:16:07.057Z,101898.84
2023-01-23T19:20:43.010Z,101908.34
2023-01-23T19:24:54.617Z,101899.88
2023-01-23T19:29:20.893Z,101902.31
2023-01-23T19:33:28.589Z,101919.81
2023-01-23T19:37:49.310Z,101920.50
2023-01-23T19:41:53.484Z,101913.44
2023-01-23T19:46:00.492Z,101919.59
2023-01-23T19:50:18.033Z,101925.25
2023-01-23T19:55:20.553Z,101930.88
2023-01-23T19:59:54.613Z,101932.78
2023-01-23T20:04:28.029Z,101925.25
2023-01-23T20:08:34.159Z,101917.41
2023-01-23T20:12:47.487Z,101934.59
2023-01-23T20:16:50.815Z,101924.72
2023-01-23T20:20:59.158Z,101912.28
2023-01-23T20:25:01.261Z,101923.34
2023-01-23T20:29:04.102Z,101925.19
2023-01-23T20:33:10.836Z,101928.50
2023-01-23T20:37:16.904Z,101923.69
2023-01-23T20:41:19.745Z,101925.16
2023-01-23T20:45:21.906Z,101929.88
2023-01-23T20:49:24.147Z,101930.47
2023-01-23T20:53:32.068Z,101923.94
2023-01-23T20:58:00.003Z,101922.88
2023-01-23T21:02:20.442Z,101924.91
2023-01-23T21:06:22.919Z,101919.47
2023-01-23T21:10:24.732Z,101925.16
2023-01-23T21:14:26.703Z,101908.00
2023-01-23T21:18:28.689Z,101919.91
2023-01-23T21:22:30.395Z,101927.00
2023-01-23T21:26:32.188Z,101917.53
2023-01-23T21:30:33.992Z,101929.34
2023-01-23T21:34:35.777Z,101923.69
2023-01-23T21:38:38.024Z,101928.25
2023-01-23T21:42:39.750Z,101931.75
2023-01-23T21:46:41.706Z,101927.72
2023-01-23T21:50:43.426Z,101930.63
2023-01-23T21:54:45.168Z,101925.75
2023-01-23T21:58:47.349Z,101933.72
2023-01-23T22:02:49.189Z,101924.34
2023-01-23T22:06:55.676Z,101928.44
2023-01-23T22:10:57.498Z,101931.47
2023-01-23T22:14:59.367Z,101923.28
2023-01-23T22:19:01.145Z,101932.03
2023-01-23T22:23:02.887Z,101929.31
2023-01-23T22:27:04.768Z,101936.31
2023-01-23T22:31:16.818Z,101940.25
2023-01-23T22:35:18.727Z,101943.00
2023-01-23T22:39:20.576Z,101945.03
2023-01-23T22:43:22.368Z,101943.84
2023-01-23T22:47:24.268Z,101937.78
2023-01-23T22:51:27.113Z,101942.50
2023-01-23T22:55:28.892Z,101951.34
2023-01-23T22:59:30.711Z,101937.47
2023-01-23T23:03:33.556Z,101938.56
2023-01-23T23:07:38.868Z,101935.69
2023-01-23T23:11:40.900Z,101932.97
2023-01-23T23:15:45.086Z,101922.56
2023-01-23T23:19:46.810Z,101929.94
2023-01-23T23:23:48.729Z,101923.94
2023-01-23T23:27:50.542Z,101915.16
2023-01-23T23:31:52.486Z,101917.63
2023-01-23T23:35:54.341Z,101930.91
2023-01-23T23:39:56.100Z,101921.00
2023-01-23T23:43:57.887Z,101930.16
2023-01-23T23:47:59.787Z,101928.22
2023-01-23T23:52:01.670Z,101929.66
2023-01-23T23:56:04.322Z,101932.31
